Time;durP1;ratioP1;P1;durP2;ratioP2;P2;SDS_P1;SDS_P2;PMS_P1;PMS_P2;Temp;Humidity;BMP_temperature;BMP_pressure;BME280_temperature;BME280_humidity;BME280_pressure;Samples;Min_cycle;Max_cycle;Signal;HPM_P1;HPM_P2
2023/06/03 00:00:40;;;;;;;13.25;6.45;;;;;;;12.43;100.00;102213.91;5070235;28;20028;-48
2023/06/03 00:03:08;;;;;;;13.13;6.28;;;;;;;12.39;100.00;102212.53;5070028;28;20021;-49
2023/06/03 00:05:33;;;;;;;18.02;7.30;;;;;;;12.36;100.00;102207.47;5068412;28;20025;-49
2023/06/03 00:07:59;;;;;;;24.98;7.03;;;;;;;12.34;100.00;102217.56;5070854;28;20031;-47
2023/06/03 00:10:24;;;;;;;16.55;6.57;;;;;;;12.32;100.00;102216.88;5084207;28;20032;-50
2023/06/03 00:12:49;;;;;;;15.93;6.65;;;;;;;12.34;100.00;102219.44;5078394;28;20431;-49
2023/06/03 00:15:15;;;;;;;18.05;6.63;;;;;;;12.33;100.00;102217.75;5088022;28;20123;-49
2023/06/03 00:17:40;;;;;;;18.80;6.65;;;;;;;12.31;100.00;102215.19;5070817;28;20036;-48
2023/06/03 00:20:06;;;;;;;15.93;7.03;;;;;;;12.34;100.00;102214.03;5072993;28;20475;-47
2023/06/03 00:22:37;;;;;;;23.05;6.82;;;;;;;12.34;100.00;102209.47;5077006;28;20040;-48
2023/06/03 00:25:06;;;;;;;19.83;7.07;;;;;;;12.38;100.00;102215.41;5078383;28;20474;-51
2023/06/03 00:27:31;;;;;;;14.73;6.53;;;;;;;12.38;100.00;102218.94;5084562;28;20043;-48
2023/06/03 00:29:57;;;;;;;15.55;6.45;;;;;;;12.36;100.00;102212.88;5084705;28;20478;-48
2023/06/03 00:32:22;;;;;;;19.02;6.80;;;;;;;12.38;100.00;102215.41;5082962;28;20036;-49
2023/06/03 00:34:48;;;;;;;15.25;6.57;;;;;;;12.35;100.00;102211.19;5078338;28;20028;-48
2023/06/03 00:37:13;;;;;;;15.20;6.47;;;;;;;12.36;100.00;102209.31;5075108;28;20028;-49
2023/06/03 00:39:38;;;;;;;12.65;6.18;;;;;;;12.35;100.00;102208.47;5084778;28;20312;-48
2023/06/03 00:42:05;;;;;;;14.18;6.68;;;;;;;12.35;100.00;102203.09;5082150;28;20028;-46
2023/06/03 00:44:30;;;;;;;11.35;5.72;;;;;;;12.36;100.00;102210.16;5083539;28;20073;-48
2023/06/03 00:46:56;;;;;;;15.60;6.30;;;;;;;12.35;100.00;102205.78;5091473;28;20055;-48
2023/06/03 00:49:21;;;;;;;15.90;7.10;;;;;;;12.33;100.00;102206.94;5074844;28;20024;-48
2023/06/03 00:51:46;;;;;;;15.85;6.30;;;;;;;12.35;100.00;102213.00;5087681;28;20041;-47
2023/06/03 00:54:13;;;;;;;19.75;6.10;;;;;;;12.35;100.00;102205.78;5071946;28;20023;-49
2023/06/03 00:56:42;;;;;;;12.98;6.18;;;;;;;12.39;100.00;102204.44;5083318;28;20364;-49
2023/06/03 00:59:13;;;;;;;16.25;6.13;;;;;;;12.41;100.00;102204.28;5084568;28;20059;-49
2023/06/03 01:01:42;;;;;;;15.00;6.05;;;;;;;12.40;100.00;102199.88;5074023;28;20035;-49
2023/06/03 01:04:16;;;;;;;13.25;5.88;;;;;;;12.40;100.00;102198.03;5085237;28;20044;-48
2023/06/03 01:07:01;;;;;;;17.73;6.93;;;;;;;12.37;100.00;102195.66;5055044;28;20029;-46
2023/06/03 01:09:45;;;;;;;17.52;6.05;;;;;;;12.30;100.00;102189.22;5070926;28;20035;-48
2023/06/03 01:12:33;;;;;;;21.25;6.05;;;;;;;12.33;100.00;102193.44;5086027;28;20106;-46
2023/06/03 01:15:09;;;;;;;18.48;6.00;;;;;;;12.30;100.00;102203.56;5092092;28;20035;-47
2023/06/03 01:17:39;;;;;;;16.08;6.15;;;;;;;12.30;100.00;102198.16;5073901;28;20487;-47
2023/06/03 01:20:09;;;;;;;25.90;7.50;;;;;;;12.30;100.00;102197.31;5077639;28;20513;-51
2023/06/03 01:22:40;;;;;;;16.60;6.45;;;;;;;12.29;100.00;102201.00;5080622;28;20059;-52
2023/06/03 01:25:08;;;;;;;15.00;6.22;;;;;;;12.29;100.00;102201.00;5071133;28;20488;-52
2023/06/03 01:27:36;;;;;;;24.33;6.68;;;;;;;12.26;100.00;102201.31;5075951;28;20035;-48
2023/06/03 01:30:03;;;;;;;15.13;5.50;;;;;;;12.27;100.00;102205.75;5090622;28;20488;-48
2023/06/03 01:32:29;;;;;;;13.15;5.63;;;;;;;12.27;100.00;102203.88;5079763;28;20543;-46
2023/06/03 01:34:55;;;;;;;16.17;5.80;;;;;;;12.27;100.00;102208.44;5078351;28;20075;-49
2023/06/03 01:37:21;;;;;;;16.13;5.95;;;;;;;12.24;100.00;102203.34;5085874;28;20063;-48
2023/06/03 01:39:46;;;;;;;16.25;6.15;;;;;;;12.20;100.00;102208.22;5082428;28;20035;-47
2023/06/03 01:42:12;;;;;;;13.35;5.72;;;;;;;12.24;100.00;102208.72;5088659;28;20036;-48
2023/06/03 01:44:38;;;;;;;14.45;5.20;;;;;;;12.23;100.00;102201.66;5081219;28;20507;-47
2023/06/03 01:47:04;;;;;;;15.27;6.25;;;;;;;12.21;100.00;102209.06;5089385;28;20044;-46
2023/06/03 01:49:31;;;;;;;11.90;5.38;;;;;;;12.20;100.00;102202.81;5095154;28;20485;-47
2023/06/03 01:52:00;;;;;;;15.93;6.23;;;;;;;12.17;100.00;102207.69;5100098;28;20240;-47
2023/06/03 01:54:26;;;;;;;13.77;5.70;;;;;;;12.19;100.00;102206.53;5092102;28;20028;-47
2023/06/03 01:56:55;;;;;;;17.55;5.57;;;;;;;12.14;100.00;102208.00;5090773;28;20024;-47
2023/06/03 01:59:23;;;;;;;12.63;5.80;;;;;;;12.16;100.00;102209.53;5070978;28;20040;-47
2023/06/03 02:01:51;;;;;;;12.15;5.35;;;;;;;12.16;100.00;102203.28;5072668;28;20032;-48
2023/06/03 02:04:16;;;;;;;;;;;;;;;12.11;100.00;102201.06;5071129;28;20371;-51
2023/06/03 02:06:47;;;;;;;18.73;6.20;;;;;;;12.13;100.00;102203.59;5072342;28;19908;-48
2023/06/03 02:09:12;;;;;;;15.88;5.40;;;;;;;12.12;100.00;102204.63;5072272;28;20043;-48
2023/06/03 02:11:37;;;;;;;12.55;5.50;;;;;;;12.13;100.00;102200.91;5088886;28;20340;-50
2023/06/03 02:14:03;;;;;;;15.73;5.32;;;;;;;12.12;100.00;102204.63;5089921;28;20043;-48
2023/06/03 02:16:28;;;;;;;11.90;5.20;;;;;;;12.10;100.00;102195.84;5091555;28;20028;-49
2023/06/03 02:18:54;;;;;;;14.82;5.25;;;;;;;12.13;100.00;102192.81;5078305;28;20593;-48
2023/06/03 02:21:20;;;;;;;16.75;6.10;;;;;;;12.13;100.00;102193.66;5091731;28;20028;-48
2023/06/03 02:23:45;;;;;;;13.40;5.22;;;;;;;12.15;100.00;102180.84;5081684;28;20028;-50
2023/06/03 02:26:13;;;;;;;13.95;5.65;;;;;;;12.17;100.00;102181.53;5091480;28;20123;-49
2023/06/03 02:28:39;;;;;;;15.68;5.80;;;;;;;12.17;100.00;102176.16;5074992;28;20089;-45
2023/06/03 02:31:04;;;;;;;14.02;6.15;;;;;;;12.15;100.00;102167.34;5082336;28;20028;-48
2023/06/03 02:33:30;;;;;;;12.35;5.30;;;;;;;12.20;100.00;102174.97;5084799;28;20082;-50
2023/06/03 02:35:55;;;;;;;16.50;5.75;;;;;;;12.12;100.00;102172.25;5081580;28;20020;-49
2023/06/03 02:38:21;;;;;;;12.85;5.00;;;;;;;12.14;100.00;102176.47;5074454;28;20044;-46
2023/06/03 02:40:46;;;;;;;8.55;5.28;;;;;;;12.21;100.00;102165.88;5073944;28;20128;-48
2023/06/03 02:43:13;;;;;;;22.30;5.35;;;;;;;12.24;100.00;102162.84;5083228;28;20021;-49
2023/06/03 02:45:38;;;;;;;10.57;4.97;;;;;;;12.23;100.00;102158.47;5071229;28;20078;-50
2023/06/03 02:48:04;;;;;;;10.27;4.57;;;;;;;12.19;100.00;102166.03;5073849;28;20028;-49
2023/06/03 02:50:29;;;;;;;14.50;5.50;;;;;;;12.21;100.00;102176.66;5073912;28;20033;-49
2023/06/03 02:52:56;;;;;;;15.10;5.57;;;;;;;12.18;100.00;102166.19;5070790;28;20532;-50
2023/06/03 02:55:23;;;;;;;11.07;4.80;;;;;;;12.15;100.00;102166.53;5073708;28;20028;-50
2023/06/03 02:57:48;;;;;;;9.80;5.13;;;;;;;12.17;100.00;102164.50;5073504;28;20087;-48
2023/06/03 03:00:15;;;;;;;10.23;5.07;;;;;;;12.15;100.00;102166.53;5082805;28;20075;-52
2023/06/03 03:02:40;;;;;;;13.48;5.03;;;;;;;12.11;100.00;102167.84;5069747;28;20032;-51
2023/06/03 03:05:06;;;;;;;12.40;4.80;;;;;;;12.11;100.00;102165.13;5070850;28;20032;-48
2023/06/03 03:07:32;;;;;;;13.55;4.82;;;;;;;12.05;100.00;102164.75;5070655;28;20032;-48
2023/06/03 03:09:58;;;;;;;14.45;5.50;;;;;;;12.06;100.00;102169.19;5084221;28;20033;-47
2023/06/03 03:12:23;;;;;;;14.13;5.05;;;;;;;12.04;100.00;102165.78;5082439;28;20075;-47
2023/06/03 03:14:49;;;;;;;13.60;5.45;;;;;;;11.99;100.00;102168.09;5083789;28;20031;-48
2023/06/03 03:17:14;;;;;;;14.75;5.00;;;;;;;11.95;100.00;102169.41;5079331;28;20457;-50
2023/06/03 03:19:39;;;;;;;15.85;5.15;;;;;;;11.92;100.00;102171.59;5083542;28;20054;-49
2023/06/03 03:22:05;;;;;;;15.45;5.35;;;;;;;11.89;100.00;102167.34;5085633;28;20025;-48
2023/06/03 03:24:30;;;;;;;14.23;5.55;;;;;;;11.93;100.00;102168.75;5080008;28;20496;-52
2023/06/03 03:26:56;;;;;;;9.90;5.10;;;;;;;11.94;100.00;102172.28;5090809;28;20137;-47
2023/06/03 03:29:23;;;;;;;13.38;4.78;;;;;;;11.90;100.00;102168.19;5086115;28;20059;-49
2023/06/03 03:31:53;;;;;;;12.25;5.25;;;;;;;11.91;100.00;102170.75;5074885;28;20056;-52
2023/06/03 03:34:18;;;;;;;7.57;4.40;;;;;;;11.91;100.00;102165.34;5071655;28;20025;-48
2023/06/03 03:36:45;;;;;;;9.68;4.25;;;;;;;11.94;100.00;102173.13;5072028;28;20112;-49
2023/06/03 03:39:11;;;;;;;17.27;5.00;;;;;;;11.91;100.00;102170.75;5051937;28;20141;-52
2023/06/03 03:41:42;;;;;;;13.13;4.70;;;;;;;11.94;100.00;102166.88;5082277;28;20456;-48
2023/06/03 03:44:07;;;;;;;10.75;5.00;;;;;;;11.88;100.00;102162.97;5088066;28;20030;-49
2023/06/03 03:46:33;;;;;;;11.02;5.05;;;;;;;11.88;100.00;102168.38;5070307;28;20036;-49
2023/06/03 03:48:58;;;;;;;15.55;4.65;;;;;;;11.88;100.00;102168.38;5055613;28;20035;-47
2023/06/03 03:51:23;;;;;;;10.80;4.63;;;;;;;11.93;100.00;102163.34;5077524;28;20074;-48
2023/06/03 03:53:49;;;;;;;10.48;4.40;;;;;;;11.91;100.00;102161.81;5078915;28;20401;-50
2023/06/03 03:56:19;;;;;;;10.88;4.85;;;;;;;11.95;100.00;102166.72;5081132;28;20035;-50
2023/06/03 03:58:46;;;;;;;9.70;4.38;;;;;;;11.96;100.00;102163.03;5084662;28;20530;-50
2023/06/03 04:01:12;;;;;;;8.67;4.60;;;;;;;11.99;100.00;102168.09;5071024;28;20112;-47
2023/06/03 04:03:40;;;;;;;12.02;4.95;;;;;;;11.98;100.00;102166.44;5084876;28;20787;-49
2023/06/03 04:06:09;;;;;;;6.90;4.00;;;;;;;11.99;100.00;102162.72;5081519;28;20118;-47
2023/06/03 04:08:39;;;;;;;10.65;4.45;;;;;;;11.97;100.00;102169.28;5084874;28;20021;-51
2023/06/03 04:11:11;;;;;;;12.45;4.53;;;;;;;12.02;100.00;102162.38;5070611;28;20538;-50
2023/06/03 04:13:40;;;;;;;7.55;3.85;;;;;;;12.11;100.00;102165.13;5053604;28;20032;-52
2023/06/03 04:16:10;;;;;;;7.60;4.20;;;;;;;12.16;100.00;102165.50;5073185;28;20546;-49
2023/06/03 04:18:40;;;;;;;11.43;5.07;;;;;;;12.17;100.00;102169.91;5075347;28;20032;-49
2023/06/03 04:21:09;;;;;;;6.88;3.70;;;;;;;12.22;100.00;102170.28;5087167;28;20028;-46
2023/06/03 04:23:34;;;;;;;8.90;3.88;;;;;;;12.26;100.00;102163.53;5082793;28;20464;-47
2023/06/03 04:26:02;;;;;;;15.52;3.70;;;;;;;12.30;100.00;102165.75;5086132;28;20028;-50
2023/06/03 04:28:27;;;;;;;10.02;4.03;;;;;;;12.33;100.00;102170.00;5082143;28;20036;-47
2023/06/03 04:30:53;;;;;;;8.00;4.47;;;;;;;12.33;100.00;102172.69;5087634;28;20427;-46
2023/06/03 04:33:18;;;;;;;8.68;4.10;;;;;;;12.40;100.00;102165.66;5086626;28;20034;-49
2023/06/03 04:35:43;;;;;;;6.00;3.35;;;;;;;12.40;100.00;102165.66;5087122;28;20403;-48
2023/06/03 04:38:10;;;;;;;11.13;4.03;;;;;;;12.48;100.00;102156.72;5059658;28;20072;-48
2023/06/03 04:40:37;;;;;;;9.25;3.90;;;;;;;12.54;100.00;102161.47;5086892;28;20082;-52
2023/06/03 04:43:03;;;;;;;10.97;3.87;;;;;;;12.54;100.00;102169.59;5081194;28;20111;-52
2023/06/03 04:45:31;;;;;;;9.48;4.05;;;;;;;12.62;100.00;102161.50;5078334;28;20028;-50
2023/06/03 04:48:01;;;;;;;11.63;3.70;;;;;;;12.68;100.00;102152.75;5079342;28;20020;-49
2023/06/03 04:50:27;;;;;;;16.77;4.45;;;;;;;12.76;100.00;102161.91;5082733;28;20032;-49
2023/06/03 04:52:53;;;;;;;5.50;3.85;;;;;;;12.79;100.00;102161.56;5080920;28;20028;-50
2023/06/03 04:55:18;;;;;;;9.05;3.47;;;;;;;12.82;100.00;102164.81;5067371;28;20460;-48
2023/06/03 04:57:45;;;;;;;10.50;3.45;;;;;;;12.89;100.00;102160.41;5081047;28;20097;-51
2023/06/03 05:00:14;;;;;;;8.50;3.65;;;;;;;12.93;100.00;102161.78;5081968;28;20020;-47
2023/06/03 05:02:44;;;;;;;8.32;3.40;;;;;;;12.99;100.00;102164.84;5080137;28;20114;-48
2023/06/03 05:05:10;;;;;;;8.40;3.40;;;;;;;13.03;100.00;102160.78;5088439;28;20089;-49
2023/06/03 05:07:35;;;;;;;7.47;3.33;;;;;;;13.05;100.00;102166.88;5072059;28;20490;-48
2023/06/03 05:10:01;;;;;;;6.93;2.75;;;;;;;13.13;100.00;102164.16;5072839;28;20024;-48
2023/06/03 05:12:26;;;;;;;6.80;3.28;;;;;;;13.18;100.00;102167.22;5092230;28;20482;-48
2023/06/03 05:14:52;;;;;;;9.48;3.60;;;;;;;13.22;100.00;102176.69;5092023;28;20081;-49
2023/06/03 05:17:17;;;;;;;8.52;3.33;;;;;;;13.25;100.00;102168.25;5091125;28;20152;-48
2023/06/03 05:19:42;;;;;;;8.90;3.05;;;;;;;13.32;100.00;102172.03;5087984;28;20035;-46
2023/06/03 05:22:08;;;;;;;9.10;3.50;;;;;;;13.38;100.00;102178.63;5082188;28;20032;-49
2023/06/03 05:24:33;;;;;;;7.30;3.25;;;;;;;13.45;100.00;102176.06;5093713;28;20020;-47
2023/06/03 05:26:58;;;;;;;9.73;2.70;;;;;;;13.51;100.00;102178.13;5092687;28;20027;-50
2023/06/03 05:29:23;;;;;;;6.28;2.97;;;;;;;13.55;100.00;102182.16;5078509;28;20024;-50
2023/06/03 05:31:49;;;;;;;10.80;3.17;;;;;;;13.55;100.00;102185.69;5088697;28;20028;-48
2023/06/03 05:34:14;;;;;;;14.65;3.00;;;;;;;13.54;100.00;102180.47;5092814;28;20043;-48
2023/06/03 05:36:39;;;;;;;6.63;3.17;;;;;;;13.58;100.00;102188.06;5088454;28;20031;-49
2023/06/03 05:39:05;;;;;;;12.55;3.10;;;;;;;13.67;100.00;102185.38;5075172;28;20068;-50
2023/06/03 05:41:30;;;;;;;7.85;3.35;;;;;;;13.75;100.00;102197.03;5057822;28;20063;-51
2023/06/03 05:43:56;;;;;;;7.72;3.20;;;;;;;13.82;100.00;102194.50;5085454;28;20489;-50
2023/06/03 05:46:23;;;;;;;6.32;2.90;;;;;;;13.90;100.00;102189.09;5084979;28;20478;-49
2023/06/03 05:48:48;;;;;;;7.25;3.00;;;;;;;13.92;100.00;102191.63;5089794;28;20032;-48
2023/06/03 05:51:14;;;;;;;6.70;3.13;;;;;;;13.91;100.00;102193.47;5076231;28;20035;-47
2023/06/03 05:53:43;;;;;;;8.82;3.10;;;;;;;13.97;100.00;102191.94;5072979;28;20025;-47
2023/06/03 05:56:10;;;;;;;9.18;3.00;;;;;;;14.13;100.00;102181.09;5073797;28;20078;-47
2023/06/03 05:58:36;;;;;;;6.68;3.10;;;;;;;14.16;100.00;102186.16;5071215;28;20090;-48
2023/06/03 06:01:01;;;;;;;7.63;2.75;;;;;;;14.22;100.00;102185.47;5076593;28;20474;-48
2023/06/03 06:03:27;;;;;;;10.13;3.28;;;;;;;14.35;100.00;102194.91;5087951;28;20039;-46
2023/06/03 06:05:53;;;;;;;7.30;2.95;;;;;;;14.50;100.00;102190.44;5092229;28;20032;-47
2023/06/03 06:08:18;;;;;;;7.85;3.00;;;;;;;14.60;100.00;102191.13;5088475;28;20039;-49
2023/06/03 06:10:44;;;;;;;6.10;2.80;;;;;;;14.65;100.00;102194.16;5078094;28;20375;-48
2023/06/03 06:13:09;;;;;;;10.38;3.10;;;;;;;14.61;100.00;102190.13;5084249;28;20035;-48
2023/06/03 06:15:35;;;;;;;4.43;3.05;;;;;;;14.67;100.00;102194.00;5092579;28;20401;-50
2023/06/03 06:18:00;;;;;;;5.78;2.90;;;;;;;14.79;100.00;102191.72;5084813;28;20115;-49
2023/06/03 06:20:26;;;;;;;5.72;3.33;;;;;;;14.96;100.00;102193.34;5090646;28;20081;-49
2023/06/03 06:22:52;;;;;;;5.18;2.88;;;;;;;15.25;100.00;102197.25;5092567;28;20108;-49
2023/06/03 06:25:17;;;;;;;8.23;2.67;;;;;;;15.50;100.00;102196.00;5091939;28;20055;-48
2023/06/03 06:27:43;;;;;;;4.43;2.88;;;;;;;15.65;100.00;102195.25;5080922;28;20461;-49
2023/06/03 06:30:08;;;;;;;6.78;2.63;;;;;;;15.71;100.00;102191.81;5082880;28;20046;-52
2023/06/03 06:32:51;;;;;;;5.75;2.78;;;;;;;15.78;100.00;102190.91;5081456;28;20036;-52
2023/06/03 06:35:17;;;;;;;5.10;2.47;;;;;;;15.96;100.00;102190.56;5070794;28;20036;-48
2023/06/03 06:37:43;;;;;;;5.20;2.70;;;;;;;16.33;100.00;102188.00;5082472;28;20502;-49
2023/06/03 06:40:16;;;;;;;7.18;3.35;;;;;;;16.64;100.00;102185.91;5081937;28;20051;-51
2023/06/03 06:42:41;;;;;;;4.93;2.80;;;;;;;16.71;100.00;102183.25;5078207;28;20029;-46
2023/06/03 06:45:27;;;;;;;4.20;2.90;;;;;;;16.84;100.00;102188.88;5069482;28;20033;-49
2023/06/03 06:48:04;;;;;;;8.38;2.85;;;;;;;16.74;100.00;102190.19;5072678;28;20032;-49
2023/06/03 06:50:30;;;;;;;8.25;3.10;;;;;;;16.67;100.00;102187.41;5075532;28;20078;-49
2023/06/03 06:52:55;;;;;;;7.97;2.70;;;;;;;16.82;100.00;102193.66;5074769;28;20082;-48
2023/06/03 06:55:39;;;;;;;6.00;3.13;;;;;;;17.03;100.00;102186.59;5080381;28;20028;-49
2023/06/03 06:58:07;;;;;;;5.75;2.63;;;;;;;17.78;96.85;102196.97;5082683;28;20434;-51
2023/06/03 07:00:32;;;;;;;4.63;2.47;;;;;;;18.72;91.36;102193.00;5082160;28;20043;-48
2023/06/03 07:02:57;;;;;;;6.75;3.00;;;;;;;19.59;87.60;102193.22;5079141;28;20023;-48
2023/06/03 07:05:22;;;;;;;10.63;2.50;;;;;;;20.64;81.64;102196.91;5071726;28;20070;-49
2023/06/03 07:07:49;;;;;;;6.88;2.80;;;;;;;21.25;76.24;102187.38;5088467;28;20570;-51
2023/06/03 07:10:20;;;;;;;5.03;2.30;;;;;;;21.90;72.33;102193.41;5087896;28;20062;-49
2023/06/03 07:12:46;;;;;;;7.15;2.50;;;;;;;22.71;71.55;102191.53;5089690;28;20397;-49
2023/06/03 07:15:12;;;;;;;6.25;2.70;;;;;;;23.50;68.71;102198.91;5087969;28;20642;-49
2023/06/03 07:17:39;;;;;;;7.57;2.28;;;;;;;23.58;61.90;102201.31;5070763;28;20247;-50
2023/06/03 07:20:06;;;;;;;5.15;2.40;;;;;;;23.89;61.86;102202.94;5089489;28;20027;-50
2023/06/03 07:22:32;;;;;;;3.50;2.20;;;;;;;24.55;60.17;102205.56;5089939;28;20031;-49
2023/06/03 07:24:57;;;;;;;2.92;2.15;;;;;;;24.62;57.78;102204.34;5088205;28;20560;-48
2023/06/03 07:27:28;;;;;;;8.77;2.60;;;;;;;24.99;56.77;102195.72;5089536;28;20031;-49
2023/06/03 07:29:58;;;;;;;8.90;2.40;;;;;;;25.16;53.61;102196.63;5090457;28;20036;-48
2023/06/03 07:32:27;;;;;;;4.68;2.40;;;;;;;25.29;56.13;102200.16;5072638;28;20024;-52
2023/06/03 07:34:52;;;;;;;9.25;2.80;;;;;;;25.81;55.37;102195.25;5089369;28;20089;-52
2023/06/03 07:37:18;;;;;;;5.50;2.10;;;;;;;25.94;54.48;102207.09;5070770;28;20477;-49
2023/06/03 07:39:43;;;;;;;4.32;2.22;;;;;;;26.11;52.12;102204.28;5088917;28;20107;-50
2023/06/03 07:42:20;;;;;;;4.78;2.20;;;;;;;26.05;51.16;102206.97;5087507;28;20039;-49
2023/06/03 07:44:46;;;;;;;;;;;;;;;26.26;48.58;102202.59;5089202;28;20087;-51
2023/06/03 07:47:15;;;;;;;7.18;2.10;;;;;;;26.32;48.53;102197.13;5087706;28;19916;-49
2023/06/03 07:49:47;;;;;;;5.88;2.10;;;;;;;25.72;49.89;102201.44;5087832;28;20028;-48
2023/06/03 07:52:19;;;;;;;7.90;2.08;;;;;;;25.22;50.44;102199.47;5091516;28;20032;-47
2023/06/03 07:54:44;;;;;;;10.57;2.20;;;;;;;25.43;49.89;102206.19;5091710;28;20027;-51
2023/06/03 07:57:13;;;;;;;3.85;2.03;;;;;;;25.93;49.42;102211.75;5093120;28;20425;-48
2023/06/03 07:59:40;;;;;;;6.20;1.85;;;;;;;26.00;49.96;102206.91;5093182;28;20550;-49
2023/06/03 08:02:09;;;;;;;7.30;2.13;;;;;;;26.70;47.85;102208.19;5093354;28;20035;-48
2023/06/03 08:04:35;;;;;;;7.25;1.75;;;;;;;26.94;46.29;102210.66;5091739;28;20032;-48
2023/06/03 08:07:02;;;;;;;2.15;1.75;;;;;;;27.16;44.96;102218.91;5092460;28;20027;-50
2023/06/03 08:09:35;;;;;;;2.47;1.80;;;;;;;27.10;43.15;102211.66;5092630;28;20120;-49
2023/06/03 08:12:03;;;;;;;3.60;1.80;;;;;;;26.93;44.11;102214.50;5093094;28;20431;-48
2023/06/03 08:14:33;;;;;;;3.47;1.80;;;;;;;27.28;42.31;102218.81;5074545;28;20020;-47
2023/06/03 08:17:07;;;;;;;10.15;1.98;;;;;;;27.70;42.53;102223.56;5092592;28;20024;-49
2023/06/03 08:19:33;;;;;;;4.53;1.60;;;;;;;28.37;41.16;102217.44;5092688;28;20107;-47
2023/06/03 08:21:59;;;;;;;3.50;1.33;;;;;;;28.52;36.55;102215.91;5091046;28;20030;-49
2023/06/03 08:24:24;;;;;;;4.38;1.33;;;;;;;28.26;36.90;102214.91;5092092;28;20024;-48
2023/06/03 08:26:50;;;;;;;1.45;1.30;;;;;;;28.16;36.97;102210.94;5092193;28;20032;-50
2023/06/03 08:29:15;;;;;;;6.03;1.60;;;;;;;28.33;36.92;102218.25;5090695;28;20478;-50
2023/06/03 08:31:40;;;;;;;3.58;1.70;;;;;;;28.56;35.68;102212.28;5091361;28;20413;-48
2023/06/03 08:34:06;;;;;;;4.03;1.58;;;;;;;28.67;35.75;102208.50;5092355;28;20028;-52
2023/06/03 08:36:32;;;;;;;4.07;1.60;;;;;;;28.57;36.67;102202.03;5092551;28;20035;-52
2023/06/03 08:38:58;;;;;;;2.35;1.20;;;;;;;28.52;35.33;102205.66;5074345;28;20027;-51
2023/06/03 08:41:25;;;;;;;2.13;1.42;;;;;;;28.65;34.04;102202.38;5092352;28;20040;-51
2023/06/03 08:43:56;;;;;;;2.85;1.20;;;;;;;28.45;33.68;102192.03;5083086;28;20020;-48
2023/06/03 08:46:23;;;;;;;4.30;1.40;;;;;;;28.44;32.73;102197.84;5082108;28;20065;-48
2023/06/03 08:48:55;;;;;;;;;;;;;;;28.32;32.50;102191.66;5073255;28;20025;-49
2023/06/03 08:51:22;;;;;;;2.70;1.25;;;;;;;28.16;30.52;102194.34;5070220;28;20007;-50
2023/06/03 08:53:49;;;;;;;4.13;1.27;;;;;;;27.96;31.07;102181.22;5080437;28;20597;-50
2023/06/03 08:56:21;;;;;;;6.35;1.15;;;;;;;27.73;32.23;102189.88;5071275;28;20029;-48
2023/06/03 08:58:52;;;;;;;7.43;1.45;;;;;;;27.92;30.60;102193.09;5076243;28;20348;-51
2023/06/03 09:01:19;;;;;;;8.75;1.25;;;;;;;27.99;30.19;102193.69;5090974;28;20231;-50
2023/06/03 09:03:45;;;;;;;2.72;1.02;;;;;;;28.18;30.30;102194.91;5091821;28;20039;-50
2023/06/03 09:06:12;;;;;;;3.65;1.10;;;;;;;28.12;29.84;102192.38;5091472;28;20024;-48
2023/06/03 09:08:38;;;;;;;2.47;1.13;;;;;;;28.04;29.68;102184.56;5091755;28;20024;-53
2023/06/03 09:11:05;;;;;;;6.25;0.90;;;;;;;27.74;30.33;102186.84;5091047;28;20024;-53
2023/06/03 09:13:33;;;;;;;2.85;1.20;;;;;;;28.04;31.08;102185.41;5089563;28;20424;-50
2023/06/03 09:15:58;;;;;;;4.78;1.00;;;;;;;28.41;29.32;102182.59;5087967;28;20048;-51
2023/06/03 09:18:24;;;;;;;1.10;1.00;;;;;;;28.70;28.65;102186.88;5087535;28;20032;-49
2023/06/03 09:20:50;;;;;;;4.55;1.20;;;;;;;28.98;28.66;102183.63;5086546;28;20036;-49
2023/06/03 09:23:15;;;;;;;2.63;1.20;;;;;;;29.14;27.98;102184.50;5071117;28;20024;-48
2023/06/03 09:25:42;;;;;;;3.53;1.42;;;;;;;28.51;27.76;102189.28;5090278;28;20101;-52
2023/06/03 09:28:08;;;;;;;4.35;1.40;;;;;;;27.72;28.64;102194.56;5091305;28;20031;-49
2023/06/03 09:30:35;;;;;;;2.97;1.20;;;;;;;27.69;28.94;102189.56;5085607;28;20522;-51
2023/06/03 09:33:01;;;;;;;5.40;1.17;;;;;;;27.34;29.55;102193.69;5078328;28;20082;-50
2023/06/03 09:35:26;;;;;;;3.63;1.52;;;;;;;27.22;31.21;102183.91;5070567;28;20044;-51
2023/06/03 09:38:04;;;;;;;4.85;1.20;;;;;;;27.48;29.97;102188.56;5070743;28;20040;-48
2023/06/03 09:40:31;;;;;;;3.70;1.30;;;;;;;27.65;30.79;102188.44;5075094;28;20039;-50
2023/06/03 09:42:57;;;;;;;3.50;1.52;;;;;;;28.00;30.84;102189.81;5079309;28;20458;-51
2023/06/03 09:45:25;;;;;;;6.43;1.30;;;;;;;28.24;29.38;102185.53;5078210;28;20027;-50
2023/06/03 09:47:50;;;;;;;3.03;1.35;;;;;;;27.83;29.28;102178.91;5090649;28;20028;-51
2023/06/03 09:50:16;;;;;;;2.78;1.25;;;;;;;28.02;29.62;102182.09;5079875;28;20108;-49
2023/06/03 09:52:41;;;;;;;2.55;1.30;;;;;;;27.72;31.07;102179.91;5070589;28;20127;-48
2023/06/03 09:55:08;;;;;;;2.80;1.33;;;;;;;28.38;29.84;102182.28;5068958;28;20036;-49
2023/06/03 09:57:34;;;;;;;;;;;;;;;28.25;28.41;102175.28;5071049;28;20052;-48
2023/06/03 10:00:17;;;;;;;5.60;1.50;;;;;;;28.16;29.40;102180.50;5070856;28;20006;-51
2023/06/03 10:02:44;;;;;;;7.13;1.73;;;;;;;27.87;29.42;102180.03;5081742;28;20085;-51
2023/06/03 10:05:28;;;;;;;4.00;1.30;;;;;;;28.15;29.14;102181.63;5081854;28;20446;-48
2023/06/03 10:07:54;;;;;;;3.35;1.52;;;;;;;27.93;28.53;102178.97;5070387;28;20394;-48
2023/06/03 10:10:20;;;;;;;8.57;1.43;;;;;;;27.24;29.13;102181.72;5062887;28;20032;-48
2023/06/03 10:12:47;;;;;;;5.25;1.42;;;;;;;26.91;29.63;102178.88;5072590;28;20036;-49
2023/06/03 10:15:13;;;;;;;1.92;1.20;;;;;;;27.15;29.32;102173.84;5068813;28;20436;-49
2023/06/03 10:17:45;;;;;;;3.53;1.30;;;;;;;27.05;29.17;102173.75;5070380;28;20033;-51
2023/06/03 10:20:10;;;;;;;4.38;1.30;;;;;;;26.82;29.53;102169.34;5070738;28;20032;-49
2023/06/03 10:22:37;;;;;;;6.72;1.55;;;;;;;26.96;30.49;102177.22;5068997;28;20557;-50
2023/06/03 10:25:04;;;;;;;3.75;1.40;;;;;;;27.29;29.61;102185.34;5069203;28;20036;-48
2023/06/03 10:27:29;;;;;;;10.23;1.65;;;;;;;27.42;30.07;102180.50;5068831;28;20090;-49
2023/06/03 10:29:55;;;;;;;8.25;1.60;;;;;;;27.98;29.73;102167.09;5068667;28;20494;-48
2023/06/03 10:32:22;;;;;;;3.65;1.20;;;;;;;28.00;28.23;102173.22;5068400;28;20128;-50
2023/06/03 10:34:49;;;;;;;1.77;1.10;;;;;;;27.61;28.84;102175.41;5070387;28;20021;-47
2023/06/03 10:37:15;;;;;;;4.13;1.10;;;;;;;27.87;28.54;102188.34;5070181;28;20033;-50
2023/06/03 10:39:41;;;;;;;3.65;1.30;;;;;;;27.58;27.94;102182.28;5070432;28;20501;-49
2023/06/03 10:42:07;;;;;;;1.55;1.10;;;;;;;27.32;28.84;102186.75;5069746;28;20393;-48
2023/06/03 10:44:32;;;;;;;4.43;1.25;;;;;;;27.49;28.67;102189.38;5069893;28;20367;-47
2023/06/03 10:47:03;;;;;;;2.67;1.20;;;;;;;27.51;28.81;102188.03;5069884;28;20052;-47
2023/06/03 10:49:33;;;;;;;2.25;1.27;;;;;;;27.00;28.32;102189.44;5068152;28;20020;-51
2023/06/03 10:52:30;;;;;;;9.48;1.58;;;;;;;26.84;28.70;102183.75;5069417;28;20104;-49
2023/06/03 10:55:05;;;;;;;3.40;1.30;;;;;;;27.06;28.76;102188.41;5067798;28;20493;-51
2023/06/03 10:57:48;;;;;;;4.07;1.38;;;;;;;26.73;28.82;102192.19;5068996;28;20059;-49
2023/06/03 11:00:51;;;;;;;2.45;1.25;;;;;;;26.25;30.06;102186.28;5068138;28;20052;-48
2023/06/03 11:03:17;;;;;;;2.85;1.25;;;;;;;26.71;30.00;102179.44;5068514;28;20028;-49
2023/06/03 11:05:45;;;;;;;1.53;1.00;;;;;;;27.34;29.73;102181.81;5069168;28;20017;-50
2023/06/03 11:08:10;;;;;;;5.05;1.40;;;;;;;27.93;29.03;102189.22;5069425;28;20032;-48
2023/06/03 11:10:36;;;;;;;3.58;1.30;;;;;;;27.78;28.49;102185.22;5068933;28;20515;-50
2023/06/03 11:13:05;;;;;;;5.40;1.30;;;;;;;27.73;29.29;102182.41;5068680;28;20449;-50
2023/06/03 11:16:00;;;;;;;2.80;1.02;;;;;;;28.01;28.06;102185.94;5067886;28;20092;-48
2023/06/03 11:18:26;;;;;;;4.45;1.30;;;;;;;27.72;28.56;102171.59;5062248;28;20037;-51